Time;durP1;ratioP1;P1;durP2;ratioP2;P2;SDS_P1;SDS_P2;PMS_P1;PMS_P2;Temp;Humidity;BMP_temperature;BMP_pressure;BME280_temperature;BME280_humidity;BME280_pressure;Samples;Min_cycle;Max_cycle;Signal;HPM_P1;HPM_P2
2021/03/12 00:05:38;;;;;;;5.28;4.28;;;;;;;;;;4677325;28;20217;-60
2021/03/12 00:08:04;;;;;;;6.05;4.35;;;;;;;;;;4217808;34;20131;-60
2021/03/12 00:10:30;;;;;;;4.72;4.20;;;;;;;;;;4209552;34;20124;-60
2021/03/12 00:12:56;;;;;;;5.72;4.10;;;;;;;;;;4204309;34;20533;-57
2021/03/12 00:15:22;;;;;;;6.90;4.53;;;;;;;;;;4192153;34;20522;-58
2021/03/12 00:17:50;;;;;;;5.80;4.40;;;;;;;;;;4203112;34;20454;-57
2021/03/12 00:20:17;;;;;;;5.70;4.22;;;;;;;;;;4202752;34;20469;-57
2021/03/12 00:22:44;;;;;;;5.87;4.25;;;;;;;;;;4201462;34;20634;-58
2021/03/12 00:25:11;;;;;;;6.82;4.28;;;;;;;;;;4188862;34;20117;-57
2021/03/12 00:27:38;;;;;;;5.97;4.37;;;;;;;;;;4195546;34;20113;-58
2021/03/12 00:30:05;;;;;;;5.68;4.20;;;;;;;;;;4190555;34;20126;-58
2021/03/12 00:32:30;;;;;;;9.32;4.32;;;;;;;;;;4200386;34;20102;-57
2021/03/12 00:34:56;;;;;;;5.90;4.12;;;;;;;;;;4204157;34;20229;-58
2021/03/12 00:37:22;;;;;;;5.90;4.03;;;;;;;;;;4201242;34;20185;-58
2021/03/12 00:39:48;;;;;;;5.22;4.43;;;;;;;;;;4204216;34;20128;-57
2021/03/12 00:42:14;;;;;;;4.75;4.03;;;;;;;;;;4204015;34;20121;-58
2021/03/12 00:44:40;;;;;;;5.62;4.32;;;;;;;;;;4203763;34;20165;-58
2021/03/12 00:47:06;;;;;;;8.10;4.65;;;;;;;;;;4204141;34;20220;-57
2021/03/12 00:49:32;;;;;;;7.32;4.70;;;;;;;;;;4204315;34;20213;-57
2021/03/12 00:51:58;;;;;;;5.97;4.00;;;;;;;;;;4201570;34;20098;-58
2021/03/12 00:54:24;;;;;;;7.03;4.40;;;;;;;;;;4203774;34;20209;-59
2021/03/12 00:56:50;;;;;;;7.25;4.20;;;;;;;;;;4203839;34;20109;-57
2021/03/12 00:59:16;;;;;;;7.43;4.22;;;;;;;;;;4204067;34;20114;-58
2021/03/12 01:01:42;;;;;;;6.55;4.32;;;;;;;;;;4203767;34;20222;-58
2021/03/12 01:04:08;;;;;;;5.60;4.30;;;;;;;;;;4203959;34;20577;-58
2021/03/12 01:06:34;;;;;;;9.50;5.18;;;;;;;;;;4214640;34;20113;-58
2021/03/12 01:09:01;;;;;;;6.12;4.28;;;;;;;;;;4217850;34;20125;-58
2021/03/12 01:11:27;;;;;;;4.90;3.95;;;;;;;;;;4217534;34;20117;-58
2021/03/12 01:13:52;;;;;;;5.28;4.00;;;;;;;;;;4217734;34;20137;-58
2021/03/12 01:16:18;;;;;;;5.65;4.20;;;;;;;;;;4217599;34;20208;-58
2021/03/12 01:18:44;;;;;;;6.80;4.03;;;;;;;;;;4217367;34;20215;-61
2021/03/12 01:21:10;;;;;;;7.85;4.35;;;;;;;;;;4217477;33;20105;-58
2021/03/12 01:23:36;;;;;;;8.32;4.82;;;;;;;;;;4204878;34;20544;-58
2021/03/12 01:26:02;;;;;;;6.07;4.40;;;;;;;;;;4217298;34;20109;-58
2021/03/12 01:28:28;;;;;;;6.45;4.47;;;;;;;;;;4217997;34;20113;-58
2021/03/12 01:30:54;;;;;;;6.10;4.60;;;;;;;;;;4217486;34;20625;-58
2021/03/12 01:33:20;;;;;;;7.97;4.85;;;;;;;;;;4217645;34;20236;-58
2021/03/12 01:35:45;;;;;;;6.25;4.68;;;;;;;;;;4217590;34;20152;-59
2021/03/12 01:38:11;;;;;;;5.47;4.68;;;;;;;;;;4219062;34;20119;-57
2021/03/12 01:40:41;;;;;;;6.40;4.85;;;;;;;;;;4219599;34;20181;-57
2021/03/12 01:43:07;;;;;;;4.82;4.10;;;;;;;;;;4219819;34;20117;-58
2021/03/12 01:45:43;;;;;;;5.72;4.43;;;;;;;;;;4219576;34;20203;-58
2021/03/12 01:48:14;;;;;;;4.85;3.90;;;;;;;;;;4219874;34;20121;-59
2021/03/12 01:50:45;;;;;;;6.00;4.47;;;;;;;;;;4206625;34;20105;-59
2021/03/12 01:53:18;;;;;;;5.37;3.92;;;;;;;;;;4202669;34;20110;-59
2021/03/12 01:55:44;;;;;;;6.95;4.15;;;;;;;;;;4194059;34;20201;-59
2021/03/12 01:58:10;;;;;;;6.95;4.10;;;;;;;;;;4219733;34;20125;-59
2021/03/12 02:00:35;;;;;;;6.65;4.80;;;;;;;;;;4219415;34;20121;-59
2021/03/12 02:03:03;;;;;;;5.90;4.57;;;;;;;;;;4206775;34;20125;-60
2021/03/12 02:05:29;;;;;;;5.28;4.37;;;;;;;;;;4219448;34;20113;-59
2021/03/12 02:07:55;;;;;;;5.30;4.30;;;;;;;;;;4219505;34;20108;-60
2021/03/12 02:10:23;;;;;;;5.50;4.57;;;;;;;;;;4219490;34;20188;-59
2021/03/12 02:13:16;;;;;;;5.43;4.20;;;;;;;;;;4206515;34;20119;-59
2021/03/12 02:15:50;;;;;;;5.05;4.32;;;;;;;;;;4192631;34;20217;-59
2021/03/12 02:18:39;;;;;;;5.72;4.40;;;;;;;;;;4206742;34;20116;-58
2021/03/12 02:21:13;;;;;;;5.15;4.45;;;;;;;;;;4205933;34;20136;-59
2021/03/12 02:23:56;;;;;;;5.82;4.40;;;;;;;;;;4206368;34;20133;-58
2021/03/12 02:26:41;;;;;;;6.70;4.30;;;;;;;;;;4207393;34;20112;-59
2021/03/12 02:29:08;;;;;;;5.30;4.20;;;;;;;;;;4219447;34;20125;-58
2021/03/12 02:31:34;;;;;;;9.00;6.78;;;;;;;;;;4206375;34;20552;-57
2021/03/12 02:34:00;;;;;;;6.62;4.68;;;;;;;;;;4206676;34;20192;-58
2021/03/12 02:36:28;;;;;;;6.37;3.92;;;;;;;;;;4206127;34;20097;-58
2021/03/12 02:38:54;;;;;;;8.38;3.95;;;;;;;;;;4206494;34;20121;-58
2021/03/12 02:41:24;;;;;;;9.93;4.18;;;;;;;;;;4194995;34;20196;-58
2021/03/12 02:43:50;;;;;;;7.53;3.40;;;;;;;;;;4219045;34;20545;-59
2021/03/12 02:46:16;;;;;;;5.95;3.80;;;;;;;;;;4206049;34;20204;-59
2021/03/12 02:48:42;;;;;;;4.75;3.47;;;;;;;;;;4194282;34;20152;-59
2021/03/12 02:51:08;;;;;;;6.87;4.15;;;;;;;;;;4206348;34;20517;-65
2021/03/12 02:53:34;;;;;;;5.45;4.50;;;;;;;;;;4205774;34;20133;-58
2021/03/12 02:56:01;;;;;;;7.35;4.60;;;;;;;;;;4205930;34;20459;-59
2021/03/12 02:58:27;;;;;;;8.27;4.90;;;;;;;;;;4206558;34;20186;-59
2021/03/12 03:00:53;;;;;;;7.37;5.45;;;;;;;;;;4205985;34;20101;-59
2021/03/12 03:03:19;;;;;;;8.93;7.00;;;;;;;;;;4206210;34;20131;-59
2021/03/12 03:05:45;;;;;;;9.52;7.22;;;;;;;;;;4205928;34;20465;-59
2021/03/12 03:08:11;;;;;;;9.45;6.40;;;;;;;;;;4206531;34;20101;-59
2021/03/12 03:10:37;;;;;;;7.82;4.97;;;;;;;;;;4205947;34;20113;-59
2021/03/12 03:13:03;;;;;;;6.57;5.35;;;;;;;;;;4219102;34;20098;-58
2021/03/12 03:15:29;;;;;;;6.78;5.03;;;;;;;;;;4218676;34;20102;-64
2021/03/12 03:17:55;;;;;;;6.32;3.85;;;;;;;;;;4219040;34;20228;-63
2021/03/12 03:20:21;;;;;;;5.87;3.80;;;;;;;;;;4218704;33;20540;-61
2021/03/12 03:22:47;;;;;;;5.62;4.10;;;;;;;;;;4218557;34;20219;-58
2021/03/12 03:25:13;;;;;;;6.97;4.20;;;;;;;;;;4205717;34;20549;-59
2021/03/12 03:27:40;;;;;;;4.40;3.78;;;;;;;;;;4218438;34;20131;-58
2021/03/12 03:30:07;;;;;;;4.80;4.15;;;;;;;;;;4218828;34;20148;-59
2021/03/12 03:32:33;;;;;;;5.50;3.92;;;;;;;;;;4218701;34;20129;-58
2021/03/12 03:34:59;;;;;;;9.98;3.83;;;;;;;;;;4218321;34;20525;-58
2021/03/12 03:37:26;;;;;;;4.65;4.00;;;;;;;;;;4205760;34;20212;-59
2021/03/12 03:39:52;;;;;;;5.53;4.05;;;;;;;;;;4218651;34;20473;-60
2021/03/12 03:42:18;;;;;;;5.15;3.35;;;;;;;;;;4218997;34;20939;-59
2021/03/12 03:44:44;;;;;;;6.28;3.95;;;;;;;;;;4205631;34;20114;-61
2021/03/12 03:47:10;;;;;;;7.90;4.10;;;;;;;;;;4205779;34;20133;-60
2021/03/12 03:49:36;;;;;;;6.57;4.68;;;;;;;;;;4205749;34;20512;-60
2021/03/12 03:52:04;;;;;;;6.20;3.90;;;;;;;;;;4193967;34;20097;-60
2021/03/12 03:54:30;;;;;;;5.97;4.20;;;;;;;;;;4205198;34;20192;-59
2021/03/12 03:56:56;;;;;;;5.53;4.15;;;;;;;;;;4205550;34;20182;-59
2021/03/12 03:59:21;;;;;;;5.97;4.10;;;;;;;;;;4193883;34;20120;-60
2021/03/12 04:01:47;;;;;;;6.25;4.47;;;;;;;;;;4217377;34;20132;-59
2021/03/12 04:04:13;;;;;;;5.90;4.30;;;;;;;;;;4205620;34;20141;-59
2021/03/12 04:06:41;;;;;;;7.32;5.10;;;;;;;;;;4217914;34;20204;-58
2021/03/12 04:09:07;;;;;;;6.87;5.18;;;;;;;;;;4205552;34;20121;-59
2021/03/12 04:11:33;;;;;;;5.93;4.43;;;;;;;;;;4205401;34;20116;-59
2021/03/12 04:14:00;;;;;;;5.47;4.10;;;;;;;;;;4218554;34;20102;-59
2021/03/12 04:16:26;;;;;;;7.03;4.85;;;;;;;;;;4205134;34;20497;-59
2021/03/12 04:18:52;;;;;;;6.97;4.32;;;;;;;;;;4205530;34;20439;-59
2021/03/12 04:21:18;;;;;;;7.65;4.60;;;;;;;;;;4205149;34;20101;-59
2021/03/12 04:23:44;;;;;;;6.07;4.85;;;;;;;;;;4218057;34;20113;-60
2021/03/12 04:26:10;;;;;;;8.68;4.78;;;;;;;;;;4204965;34;20200;-59
2021/03/12 04:28:36;;;;;;;6.10;4.45;;;;;;;;;;4205382;34;20112;-59
2021/03/12 04:31:02;;;;;;;7.90;5.80;;;;;;;;;;4205079;34;20121;-59
2021/03/12 04:33:28;;;;;;;5.12;4.05;;;;;;;;;;4218339;34;20121;-60
2021/03/12 04:35:54;;;;;;;7.10;4.20;;;;;;;;;;4217572;34;20116;-59
2021/03/12 04:38:21;;;;;;;6.65;4.22;;;;;;;;;;4218219;34;20140;-59
2021/03/12 04:40:47;;;;;;;7.62;4.62;;;;;;;;;;4204899;34;20554;-59
2021/03/12 04:43:13;;;;;;;5.35;3.80;;;;;;;;;;4205302;34;20540;-60
2021/03/12 04:45:39;;;;;;;6.32;4.35;;;;;;;;;;4217450;34;20136;-59
2021/03/12 04:48:05;;;;;;;5.03;3.90;;;;;;;;;;4205189;34;20617;-59
2021/03/12 04:50:31;;;;;;;5.93;4.30;;;;;;;;;;4205254;34;20235;-60
2021/03/12 04:52:57;;;;;;;6.03;4.00;;;;;;;;;;4218138;34;20137;-59
2021/03/12 04:55:24;;;;;;;6.22;4.53;;;;;;;;;;4217553;34;20485;-60
2021/03/12 04:57:50;;;;;;;5.43;4.72;;;;;;;;;;4205203;34;20528;-59
2021/03/12 05:00:17;;;;;;;9.00;5.62;;;;;;;;;;4218086;34;20133;-60
2021/03/12 05:02:43;;;;;;;6.35;4.70;;;;;;;;;;4217622;34;20176;-59
2021/03/12 05:05:10;;;;;;;7.18;5.30;;;;;;;;;;4204397;34;20112;-59
2021/03/12 05:07:36;;;;;;;7.35;4.40;;;;;;;;;;4204794;34;20120;-59
2021/03/12 05:10:04;;;;;;;10.25;5.05;;;;;;;;;;4218073;34;20538;-60
2021/03/12 05:12:30;;;;;;;7.85;5.55;;;;;;;;;;4218434;34;20277;-59
2021/03/12 05:14:56;;;;;;;10.05;5.78;;;;;;;;;;4219597;34;20137;-60
2021/03/12 05:17:22;;;;;;;5.93;4.25;;;;;;;;;;4219902;34;20117;-59
2021/03/12 05:19:49;;;;;;;8.07;4.60;;;;;;;;;;4219920;33;20109;-59
2021/03/12 05:22:15;;;;;;;5.80;4.62;;;;;;;;;;4219900;34;20151;-59
2021/03/12 05:24:41;;;;;;;7.57;4.85;;;;;;;;;;4219528;34;20782;-59
2021/03/12 05:27:07;;;;;;;7.45;3.92;;;;;;;;;;4219724;34;20208;-59
2021/03/12 05:29:33;;;;;;;5.78;4.28;;;;;;;;;;4207146;34;20130;-59
2021/03/12 05:31:59;;;;;;;5.82;3.67;;;;;;;;;;4206859;34;20132;-59
2021/03/12 05:34:26;;;;;;;8.98;4.68;;;;;;;;;;4219522;34;20114;-59
2021/03/12 05:36:52;;;;;;;8.93;4.22;;;;;;;;;;4195089;34;20178;-58
2021/03/12 05:39:19;;;;;;;5.87;5.05;;;;;;;;;;4219710;34;20664;-58
2021/03/12 05:41:46;;;;;;;8.68;4.47;;;;;;;;;;4219539;34;20121;-59
2021/03/12 05:44:13;;;;;;;6.80;4.15;;;;;;;;;;4219749;34;20129;-59
2021/03/12 05:46:39;;;;;;;4.70;3.97;;;;;;;;;;4206248;34;20196;-59
2021/03/12 05:49:05;;;;;;;7.90;4.07;;;;;;;;;;4206976;34;20145;-59
2021/03/12 05:51:34;;;;;;;8.82;4.57;;;;;;;;;;4205468;34;20133;-61
2021/03/12 05:54:01;;;;;;;8.73;4.32;;;;;;;;;;4207707;34;20128;-60
2021/03/12 05:56:27;;;;;;;9.68;4.82;;;;;;;;;;4197694;34;20117;-60
2021/03/12 05:58:54;;;;;;;10.25;4.40;;;;;;;;;;4206661;34;20149;-60
2021/03/12 06:01:20;;;;;;;8.02;4.40;;;;;;;;;;4206691;34;20110;-60
2021/03/12 06:03:46;;;;;;;12.30;4.40;;;;;;;;;;4206147;34;20128;-60
2021/03/12 06:06:12;;;;;;;10.63;4.32;;;;;;;;;;4218900;34;20135;-60
2021/03/12 06:08:37;;;;;;;11.23;5.35;;;;;;;;;;4206364;34;20148;-59
2021/03/12 06:11:04;;;;;;;8.98;4.90;;;;;;;;;;4219272;34;20453;-59
2021/03/12 06:13:30;;;;;;;16.77;4.93;;;;;;;;;;4219466;34;20116;-59
2021/03/12 06:15:56;;;;;;;16.02;4.75;;;;;;;;;;4205896;34;20133;-59
2021/03/12 06:18:26;;;;;;;14.38;5.35;;;;;;;;;;4219356;34;20201;-59
2021/03/12 06:20:52;;;;;;;12.05;5.40;;;;;;;;;;4219213;34;20098;-59
2021/03/12 06:23:38;;;;;;;10.25;4.45;;;;;;;;;;4219318;34;20179;-59
2021/03/12 06:26:04;;;;;;;15.80;5.05;;;;;;;;;;4218976;34;20124;-59
2021/03/12 06:28:31;;;;;;;14.65;5.00;;;;;;;;;;4219276;34;20609;-58
2021/03/12 06:30:57;;;;;;;10.95;4.65;;;;;;;;;;4206534;34;20512;-59
2021/03/12 06:33:28;;;;;;;16.92;5.05;;;;;;;;;;4219390;34;20355;-58
2021/03/12 06:35:53;;;;;;;15.80;5.25;;;;;;;;;;4218824;34;20220;-59
2021/03/12 06:38:19;;;;;;;12.55;5.18;;;;;;;;;;4219267;34;20442;-59
2021/03/12 06:40:45;;;;;;;11.48;4.62;;;;;;;;;;4218683;34;20200;-59
2021/03/12 06:43:13;;;;;;;11.43;4.80;;;;;;;;;;4219282;34;20141;-59
2021/03/12 06:45:41;;;;;;;16.65;4.78;;;;;;;;;;4218841;34;20132;-59
2021/03/12 06:48:18;;;;;;;9.23;4.97;;;;;;;;;;4219069;34;20511;-59
2021/03/12 06:50:54;;;;;;;13.13;4.75;;;;;;;;;;4219062;34;20152;-58
2021/03/12 06:53:34;;;;;;;9.23;5.40;;;;;;;;;;4207221;34;20120;-59
2021/03/12 06:56:08;;;;;;;9.05;5.10;;;;;;;;;;4218953;34;20155;-59
2021/03/12 06:58:34;;;;;;;10.57;5.40;;;;;;;;;;4206189;34;20121;-60
2021/03/12 07:01:00;;;;;;;9.57;5.68;;;;;;;;;;4218783;34;20116;-59
2021/03/12 07:03:26;;;;;;;14.85;6.40;;;;;;;;;;4218958;34;20121;-60
2021/03/12 07:05:59;;;;;;;13.85;7.15;;;;;;;;;;4218415;34;20138;-59
2021/03/12 07:08:32;;;;;;;14.98;7.00;;;;;;;;;;4218807;34;20120;-60
2021/03/12 07:10:58;;;;;;;16.33;6.95;;;;;;;;;;4218503;34;20124;-60
2021/03/12 07:13:25;;;;;;;20.65;7.82;;;;;;;;;;4206028;34;20545;-61
2021/03/12 07:15:51;;;;;;;18.42;7.10;;;;;;;;;;4205661;34;20222;-60
2021/03/12 07:18:18;;;;;;;18.50;7.05;;;;;;;;;;4218658;34;20094;-60
2021/03/12 07:20:44;;;;;;;14.38;6.95;;;;;;;;;;4218618;33;20132;-60
2021/03/12 07:23:10;;;;;;;16.95;6.28;;;;;;;;;;4205939;34;20185;-60
2021/03/12 07:25:36;;;;;;;22.08;7.10;;;;;;;;;;4205639;34;20656;-60
2021/03/12 07:28:05;;;;;;;25.60;8.10;;;;;;;;;;4205943;34;20109;-60
2021/03/12 07:30:33;;;;;;;22.75;7.82;;;;;;;;;;4218449;34;20108;-61
2021/03/12 07:32:58;;;;;;;21.37;7.25;;;;;;;;;;4206404;34;20105;-59
2021/03/12 07:35:25;;;;;;;20.05;7.28;;;;;;;;;;4205396;34;20612;-60
2021/03/12 07:37:51;;;;;;;21.17;7.00;;;;;;;;;;4218395;34;20116;-59
2021/03/12 07:40:17;;;;;;;21.77;7.68;;;;;;;;;;4205911;34;20104;-59
2021/03/12 07:42:43;;;;;;;21.27;7.20;;;;;;;;;;4205699;34;20132;-59
2021/03/12 07:45:10;;;;;;;18.70;7.15;;;;;;;;;;4205302;34;20548;-59
2021/03/12 07:47:36;;;;;;;35.65;8.18;;;;;;;;;;4205360;34;20510;-59
2021/03/12 07:50:02;;;;;;;21.30;8.50;;;;;;;;;;4205643;34;20104;-59
2021/03/12 07:52:54;;;;;;;21.15;7.90;;;;;;;;;;4214570;34;20165;-59
2021/03/12 07:55:35;;;;;;;28.80;9.50;;;;;;;;;;4213895;34;20266;-59
2021/03/12 07:58:08;;;;;;;29.87;9.45;;;;;;;;;;4217732;34;20217;-59
2021/03/12 08:00:52;;;;;;;27.45;8.73;;;;;;;;;;4218302;34;20101;-58
2021/03/12 08:03:31;;;;;;;24.83;9.88;;;;;;;;;;4218865;34;20098;-59
2021/03/12 08:05:57;;;;;;;32.10;10.77;;;;;;;;;;4217903;34;20102;-59
2021/03/12 08:08:37;;;;;;;22.95;8.93;;;;;;;;;;4218395;34;20217;-58
2021/03/12 08:11:27;;;;;;;33.45;9.82;;;;;;;;;;4218550;34;20101;-59
2021/03/12 08:13:55;;;;;;;35.17;11.05;;;;;;;;;;4218422;34;20089;-59
2021/03/12 08:16:21;;;;;;;32.05;10.13;;;;;;;;;;4217466;34;20114;-59
2021/03/12 08:18:46;;;;;;;20.75;7.40;;;;;;;;;;4218043;34;20241;-59
2021/03/12 08:21:33;;;;;;;22.58;7.82;;;;;;;;;;4218011;33;20156;-57
2021/03/12 08:24:02;;;;;;;23.08;7.28;;;;;;;;;;4218486;34;20123;-59
2021/03/12 08:26:55;;;;;;;27.90;9.27;;;;;;;;;;4217807;34;20185;-58
2021/03/12 08:29:32;;;;;;;29.67;7.60;;;;;;;;;;4205332;34;20196;-59
2021/03/12 08:31:58;;;;;;;35.03;8.55;;;;;;;;;;4218100;34;20606;-59
2021/03/12 08:34:40;;;;;;;23.55;9.05;;;;;;;;;;4218187;34;20570;-59
2021/03/12 08:37:25;;;;;;;20.60;9.57;;;;;;;;;;4218046;34;20117;-58
2021/03/12 08:40:13;;;;;;;20.60;7.85;;;;;;;;;;4217760;34;20188;-58
2021/03/12 08:42:55;;;;;;;31.67;10.38;;;;;;;;;;4217987;34;20113;-57
2021/03/12 08:45:34;;;;;;;30.00;11.07;;;;;;;;;;4217747;34;20117;-58
2021/03/12 08:48:05;;;;;;;31.55;12.43;;;;;;;;;;4205002;34;20418;-58
2021/03/12 08:50:32;;;;;;;33.67;12.85;;;;;;;;;;4206056;34;20117;-59
2021/03/12 08:52:58;;;;;;;35.15;11.82;;;;;;;;;;4219700;34;20097;-59
2021/03/12 08:55:24;;;;;;;27.27;10.98;;;;;;;;;;4217677;34;20131;-59
2021/03/12 08:57:50;;;;;;;33.30;11.52;;;;;;;;;;4218999;34;20125;-59
2021/03/12 09:00:16;;;;;;;33.85;11.77;;;;;;;;;;4204656;34;20125;-58
2021/03/12 09:02:42;;;;;;;34.80;12.10;;;;;;;;;;4219003;34;20494;-57
2021/03/12 09:05:25;;;;;;;31.87;12.43;;;;;;;;;;4219922;34;20188;-57
2021/03/12 09:07:52;;;;;;;35.05;13.38;;;;;;;;;;4219949;34;20105;-58
2021/03/12 09:10:26;;;;;;;38.17;12.70;;;;;;;;;;4219660;34;20148;-58
2021/03/12 09:12:52;;;;;;;33.90;12.75;;;;;;;;;;4219913;34;20156;-59
2021/03/12 09:15:25;;;;;;;33.92;12.00;;;;;;;;;;4219776;34;20116;-58
2021/03/12 09:17:57;;;;;;;35.53;12.40;;;;;;;;;;4219838;34;20121;-58
2021/03/12 09:20:24;;;;;;;33.22;11.88;;;;;;;;;;4206302;34;20121;-57
2021/03/12 09:22:51;;;;;;;34.10;10.45;;;;;;;;;;4219808;34;20116;-57
2021/03/12 09:25:43;;;;;;;42.53;13.50;;;;;;;;;;4219532;34;20495;-58
2021/03/12 09:28:10;;;;;;;31.67;10.90;;;;;;;;;;4217223;34;20129;-59
2021/03/12 09:30:46;;;;;;;38.75;10.98;;;;;;;;;;4219372;34;20104;-58
2021/03/12 09:33:32;;;;;;;37.70;9.60;;;;;;;;;;4219875;34;20536;-58
2021/03/12 09:35:59;;;;;;;48.90;9.93;;;;;;;;;;4219531;34;20145;-59
2021/03/12 09:38:37;;;;;;;47.78;10.50;;;;;;;;;;4206931;34;20093;-58
2021/03/12 09:41:15;;;;;;;46.35;9.82;;;;;;;;;;4219577;34;20136;-61
2021/03/12 09:43:43;;;;;;;38.95;10.45;;;;;;;;;;4219965;34;20102;-61
2021/03/12 09:46:09;;;;;;;49.40;11.40;;;;;;;;;;4219651;34;20525;-59
2021/03/12 09:48:35;;;;;;;42.10;12.90;;;;;;;;;;4204890;34;20165;-59
2021/03/12 09:51:01;;;;;;;32.80;11.25;;;;;;;;;;4217628;34;20141;-60
2021/03/12 09:53:27;;;;;;;50.33;12.40;;;;;;;;;;4206747;34;20106;-59
2021/03/12 09:55:52;;;;;;;32.90;11.40;;;;;;;;;;4194702;34;20136;-59
2021/03/12 09:58:18;;;;;;;45.25;11.55;;;;;;;;;;4206969;34;20123;-58
2021/03/12 10:00:44;;;;;;;36.67;11.70;;;;;;;;;;4219385;34;20298;-59
2021/03/12 10:03:10;;;;;;;36.33;13.50;;;;;;;;;;4206954;34;20102;-58
2021/03/12 10:05:36;;;;;;;39.10;14.57;;;;;;;;;;4219111;34;20140;-59
2021/03/12 10:08:04;;;;;;;44.97;12.90;;;;;;;;;;4219442;34;20133;-59
2021/03/12 10:10:31;;;;;;;43.05;12.98;;;;;;;;;;4218467;34;20117;-61
2021/03/12 10:12:59;;;;;;;42.20;13.30;;;;;;;;;;4219424;34;20173;-58
2021/03/12 10:15:30;;;;;;;27.55;8.07;;;;;;;;;;4219511;34;20641;-60
2021/03/12 10:17:56;;;;;;;31.00;8.90;;;;;;;;;;4216321;34;20113;-59
2021/03/12 10:20:24;;;;;;;7.40;3.92;;;;;;;;;;4218348;33;20104;-60
2021/03/12 10:23:05;;;;;;;15.90;4.80;;;;;;;;;;4219175;34;20116;-59
2021/03/12 10:25:38;;;;;;;7.55;3.30;;;;;;;;;;4219199;34;20148;-60
2021/03/12 10:28:08;;;;;;;25.80;6.65;;;;;;;;;;4219206;34;20265;-60
2021/03/12 10:30:35;;;;;;;22.87;6.03;;;;;;;;;;4219086;34;20137;-59
2021/03/12 10:33:06;;;;;;;16.75;6.50;;;;;;;;;;4219265;34;20117;-61
2021/03/12 10:35:32;;;;;;;24.25;8.73;;;;;;;;;;4219596;34;20533;-59
2021/03/12 10:38:18;;;;;;;24.85;10.00;;;;;;;;;;4219046;34;20550;-58
2021/03/12 10:40:54;;;;;;;;;;;;;;;;;;4219169;34;20141;-59
2021/03/12 10:43:30;;;;;;;21.77;8.63;;;;;;;;;;4219347;33;20035;-59
2021/03/12 10:45:58;;;;;;;22.52;8.77;;;;;;;;;;4219374;34;20112;-59
2021/03/12 10:48:26;;;;;;;28.38;9.48;;;;;;;;;;4218946;34;20114;-58
2021/03/12 10:50:56;;;;;;;20.65;8.60;;;;;;;;;;4218902;34;20421;-59
2021/03/12 10:53:22;;;;;;;16.77;8.65;;;;;;;;;;4209578;34;20094;-59
2021/03/12 10:55:49;;;;;;;20.90;7.72;;;;;;;;;;4205091;34;20109;-59
2021/03/12 10:58:34;;;;;;;24.80;8.88;;;;;;;;;;4217001;34;20113;-59
2021/03/12 11:01:10;;;;;;;31.73;9.90;;;;;;;;;;4218759;34;20119;-59
2021/03/12 11:03:37;;;;;;;25.95;9.48;;;;;;;;;;4219236;34;20209;-59
2021/03/12 11:06:03;;;;;;;20.27;8.20;;;;;;;;;;4218545;34;20116;-59
2021/03/12 11:08:29;;;;;;;22.37;7.55;;;;;;;;;;4216925;34;20180;-58
2021/03/12 11:10:55;;;;;;;20.12;7.70;;;;;;;;;;4216145;34;20285;-59
2021/03/12 11:13:21;;;;;;;17.23;8.05;;;;;;;;;;4216812;34;20109;-58
2021/03/12 11:15:47;;;;;;;20.85;8.65;;;;;;;;;;4217508;34;20458;-61
2021/03/12 11:18:13;;;;;;;18.33;7.35;;;;;;;;;;4218879;34;20086;-60
2021/03/12 11:20:39;;;;;;;18.40;7.22;;;;;;;;;;4218633;33;20129;-59
2021/03/12 11:23:05;;;;;;;20.77;7.55;;;;;;;;;;4219150;34;20117;-60
2021/03/12 11:25:31;;;;;;;16.40;7.28;;;;;;;;;;4218880;34;20136;-60
2021/03/12 11:27:57;;;;;;;22.25;7.47;;;;;;;;;;4205759;34;20125;-59
2021/03/12 11:30:24;;;;;;;16.92;7.03;;;;;;;;;;4218785;34;20623;-59
2021/03/12 11:32:50;;;;;;;14.27;5.60;;;;;;;;;;4218750;34;20121;-59
2021/03/12 11:35:16;;;;;;;16.48;6.60;;;;;;;;;;4218628;34;20204;-60
2021/03/12 11:37:42;;;;;;;13.25;5.22;;;;;;;;;;4205446;34;20132;-60
2021/03/12 11:40:09;;;;;;;9.07;5.05;;;;;;;;;;4218579;34;20133;-60
2021/03/12 11:42:36;;;;;;;12.13;5.55;;;;;;;;;;4218580;34;20113;-61
2021/03/12 11:45:03;;;;;;;10.35;4.18;;;;;;;;;;4218656;34;20104;-60
2021/03/12 11:47:28;;;;;;;13.38;5.05;;;;;;;;;;4218650;34;20196;-59
2021/03/12 11:49:54;;;;;;;12.95;4.70;;;;;;;;;;4218388;34;20117;-59
2021/03/12 11:52:26;;;;;;;10.68;4.80;;;;;;;;;;4218633;34;20574;-58
2021/03/12 11:54:55;;;;;;;9.73;4.28;;;;;;;;;;4218603;34;20116;-58
2021/03/12 11:57:21;;;;;;;11.32;4.87;;;;;;;;;;4218706;34;20468;-58
2021/03/12 11:59:47;;;;;;;7.05;3.60;;;;;;;;;;4218303;34;20200;-59
2021/03/12 12:02:15;;;;;;;11.30;4.70;;;;;;;;;;4205633;34;20473;-60
2021/03/12 12:04:44;;;;;;;9.80;4.30;;;;;;;;;;4218064;34;20105;-60
2021/03/12 12:07:11;;;;;;;6.65;4.40;;;;;;;;;;4218440;34;20514;-59
2021/03/12 12:09:38;;;;;;;3.97;2.85;;;;;;;;;;4217908;34;20112;-59
2021/03/12 12:12:04;;;;;;;9.50;4.40;;;;;;;;;;4218319;34;20125;-60
2021/03/12 12:14:30;;;;;;;7.55;3.50;;;;;;;;;;4218414;34;20140;-59
2021/03/12 12:16:56;;;;;;;10.50;3.87;;;;;;;;;;4218272;34;20110;-59
2021/03/12 12:19:22;;;;;;;6.47;3.17;;;;;;;;;;4218006;34;20199;-58
2021/03/12 12:21:48;;;;;;;8.80;3.25;;;;;;;;;;4217151;33;20549;-58
2021/03/12 12:24:14;;;;;;;8.43;3.12;;;;;;;;;;4218309;34;20093;-58
2021/03/12 12:26:40;;;;;;;5.20;3.17;;;;;;;;;;4218133;34;20174;-58
2021/03/12 12:29:06;;;;;;;7.60;3.22;;;;;;;;;;4217989;34;20205;-58
2021/03/12 12:31:33;;;;;;;7.32;4.10;;;;;;;;;;4218065;34;20177;-57
2021/03/12 12:33:59;;;;;;;4.87;3.25;;;;;;;;;;4218147;34;20185;-57
2021/03/12 12:36:25;;;;;;;6.15;3.87;;;;;;;;;;4217372;34;20314;-57
2021/03/12 12:38:53;;;;;;;7.47;4.68;;;;;;;;;;4217463;34;20101;-58
2021/03/12 12:41:19;;;;;;;7.87;3.30;;;;;;;;;;4217268;34;20117;-59
2021/03/12 12:43:46;;;;;;;11.15;5.00;;;;;;;;;;4217151;34;20112;-59
2021/03/12 12:46:12;;;;;;;23.67;9.32;;;;;;;;;;4215863;34;20105;-59
2021/03/12 12:48:38;;;;;;;27.42;10.07;;;;;;;;;;4218408;34;20132;-59
2021/03/12 12:51:04;;;;;;;31.62;9.75;;;;;;;;;;4217916;33;20113;-59
2021/03/12 12:53:30;;;;;;;24.40;9.77;;;;;;;;;;4217636;34;20113;-59
2021/03/12 12:55:56;;;;;;;28.17;9.50;;;;;;;;;;4217422;34;20112;-59
2021/03/12 12:58:22;;;;;;;34.97;11.00;;;;;;;;;;4217407;34;20125;-56
2021/03/12 13:00:48;;;;;;;32.10;9.90;;;;;;;;;;4217395;33;20108;-56
2021/03/12 13:03:14;;;;;;;29.30;10.00;;;;;;;;;;4217312;34;20173;-57
2021/03/12 13:05:40;;;;;;;32.17;9.73;;;;;;;;;;4215161;33;20179;-56
2021/03/12 13:08:06;;;;;;;29.92;9.85;;;;;;;;;;4217237;34;20121;-57
2021/03/12 13:10:35;;;;;;;28.98;9.45;;;;;;;;;;4216954;33;20116;-58
2021/03/12 13:13:01;;;;;;;31.48;9.73;;;;;;;;;;4217066;34;20156;-57
2021/03/12 13:15:27;;;;;;;29.02;10.93;;;;;;;;;;4216640;33;20129;-58
2021/03/12 13:17:53;;;;;;;38.67;9.55;;;;;;;;;;4217214;34;20162;-59
2021/03/12 13:20:19;;;;;;;23.20;9.73;;;;;;;;;;4215281;33;20113;-57
2021/03/12 13:22:49;;;;;;;33.83;10.38;;;;;;;;;;4217614;34;20113;-55
2021/03/12 13:25:16;;;;;;;36.80;11.82;;;;;;;;;;4211485;34;20125;-58
2021/03/12 13:27:42;;;;;;;30.12;10.55;;;;;;;;;;4203110;34;20463;-54
2021/03/12 13:30:09;;;;;;;36.45;15.88;;;;;;;;;;4202318;34;20125;-55
2021/03/12 13:32:35;;;;;;;30.45;10.35;;;;;;;;;;4201460;34;20222;-56
2021/03/12 13:35:01;;;;;;;31.60;11.00;;;;;;;;;;4203537;34;20145;-53
2021/03/12 13:37:27;;;;;;;25.33;8.70;;;;;;;;;;4203457;34;20208;-57
2021/03/12 13:39:53;;;;;;;31.42;9.57;;;;;;;;;;4203298;34;20141;-58
2021/03/12 13:42:20;;;;;;;24.02;9.57;;;;;;;;;;4203904;34;20106;-57
2021/03/12 13:44:46;;;;;;;21.25;7.65;;;;;;;;;;4203439;34;20204;-56
2021/03/12 13:47:12;;;;;;;25.23;9.05;;;;;;;;;;4203425;34;20110;-58
2021/03/12 13:49:37;;;;;;;25.15;8.63;;;;;;;;;;4203304;34;20493;-58
2021/03/12 13:52:05;;;;;;;15.25;7.40;;;;;;;;;;4203281;34;20215;-57
2021/03/12 13:54:31;;;;;;;9.60;3.92;;;;;;;;;;4203177;34;20139;-55
2021/03/12 13:56:57;;;;;;;15.25;4.22;;;;;;;;;;4203443;34;20118;-55
2021/03/12 13:59:23;;;;;;;17.95;5.28;;;;;;;;;;4203160;34;20557;-55
2021/03/12 14:01:48;;;;;;;9.38;4.10;;;;;;;;;;4203576;34;20121;-56
2021/03/12 14:04:14;;;;;;;7.47;4.12;;;;;;;;;;4203706;34;20164;-59
2021/03/12 14:06:40;;;;;;;5.65;3.28;;;;;;;;;;4204603;34;20110;-56
2021/03/12 14:09:13;;;;;;;9.68;3.35;;;;;;;;;;4205513;34;20097;-55
2021/03/12 14:11:40;;;;;;;10.68;3.42;;;;;;;;;;4205451;34;20101;-56
2021/03/12 14:14:07;;;;;;;10.50;4.35;;;;;;;;;;4205450;34;20126;-58
2021/03/12 14:16:33;;;;;;;10.23;3.22;;;;;;;;;;4205352;34;20125;-58
2021/03/12 14:18:59;;;;;;;4.65;3.62;;;;;;;;;;4205367;34;20116;-58
2021/03/12 14:21:26;;;;;;;7.97;3.60;;;;;;;;;;4217493;33;20121;-58
2021/03/12 14:23:52;;;;;;;7.90;3.30;;;;;;;;;;4219327;34;20106;-57
2021/03/12 14:26:19;;;;;;;8.00;4.82;;;;;;;;;;4219502;33;20442;-58
2021/03/12 14:28:45;;;;;;;8.32;5.00;;;;;;;;;;4219447;34;20468;-57
2021/03/12 14:31:11;;;;;;;9.40;5.50;;;;;;;;;;4219287;33;20132;-57
2021/03/12 14:33:37;;;;;;;6.87;5.37;;;;;;;;;;4219194;34;20489;-58
2021/03/12 14:36:04;;;;;;;11.40;6.70;;;;;;;;;;4206219;34;20129;-59
2021/03/12 14:38:30;;;;;;;13.15;7.00;;;;;;;;;;4219234;34;20101;-58
2021/03/12 14:40:56;;;;;;;11.95;6.37;;;;;;;;;;4219074;33;20216;-57
2021/03/12 14:43:22;;;;;;;10.98;5.45;;;;;;;;;;4219140;34;20127;-58
2021/03/12 14:45:48;;;;;;;13.00;4.68;;;;;;;;;;4218304;33;20575;-58